Time;durP1;ratioP1;P1;durP2;ratioP2;P2;SDS_P1;SDS_P2;PMS_P1;PMS_P2;Temp;Humidity;BMP_temperature;BMP_pressure;BME280_temperature;BME280_humidity;BME280_pressure;Samples;Min_cycle;Max_cycle;Signal;HPM_P1;HPM_P2
2021/10/03 00:03:41;;;;;;;2.03;1.27;;;22.60;49.00;27.00;93193.00;;;;10391216;28;46524;-59
2021/10/03 00:08:42;;;;;;;1.90;1.17;;;22.60;49.00;26.90;93194.00;;;;10390449;28;45424;-61
2021/10/03 00:13:42;;;;;;;1.77;1.20;;;22.60;49.00;26.90;93205.00;;;;10390470;28;47682;-61
2021/10/03 00:18:43;;;;;;;1.50;1.13;;;22.50;49.00;26.90;93200.00;;;;10390238;28;55070;-60
2021/10/03 00:23:44;;;;;;;1.60;1.20;;;22.50;49.00;26.90;93197.00;;;;10384564;28;65092;-59
2021/10/03 00:28:45;;;;;;;1.95;1.20;;;22.50;49.00;26.90;93199.00;;;;10388244;28;71609;-60
2021/10/03 00:33:45;;;;;;;1.63;1.23;;;22.50;49.10;26.90;93200.00;;;;10390484;28;75640;-60
2021/10/03 00:38:46;;;;;;;1.83;1.15;;;22.50;49.00;26.90;93182.00;;;;10388806;28;75300;-60
2021/10/03 00:43:47;;;;;;;1.35;1.00;;;22.50;49.10;26.90;93173.00;;;;10389974;28;67723;-62
2021/10/03 00:48:47;;;;;;;1.33;1.20;;;22.50;49.10;26.90;93185.00;;;;10389255;28;63645;-59
2021/10/03 00:53:50;;;;;;;1.20;0.95;;;22.50;49.10;26.90;93176.00;;;;10389527;28;74155;-60
2021/10/03 00:58:51;;;;;;;1.45;1.15;;;22.50;49.10;26.90;93169.00;;;;10426990;22;47961;-68
2021/10/03 01:03:51;;;;;;;1.63;1.15;;;22.50;49.00;26.90;93169.00;;;;10401901;28;49303;-67
2021/10/03 01:08:52;;;;;;;1.30;1.17;;;22.50;49.00;26.80;93145.00;;;;10372876;28;63669;-66
2021/10/03 01:13:53;;;;;;;1.90;1.15;;;22.50;49.10;26.80;93145.00;;;;10338576;28;76547;-65
2021/10/03 01:18:55;;;;;;;1.17;1.00;;;22.50;49.10;26.80;93147.00;;;;10355803;28;75405;-65
2021/10/03 01:23:57;;;;;;;1.20;1.10;;;22.50;49.10;26.80;93153.00;;;;10355953;28;46372;-66
2021/10/03 01:28:58;;;;;;;1.40;1.10;;;22.50;49.00;26.80;93142.00;;;;10338802;28;47481;-65
2021/10/03 01:33:59;;;;;;;1.20;1.10;;;22.40;49.00;26.80;93138.00;;;;10339505;28;46979;-65
2021/10/03 01:39:00;;;;;;;1.45;1.23;;;22.50;49.00;26.80;93124.00;;;;10355936;28;45731;-65
2021/10/03 01:44:01;;;;;;;1.70;1.20;;;22.50;49.70;26.80;93123.00;;;;10339359;28;48052;-66
2021/10/03 01:49:02;;;;;;;1.38;1.00;;;22.50;49.00;26.80;93134.00;;;;10338339;28;47117;-66
2021/10/03 01:54:03;;;;;;;1.60;1.30;;;22.50;49.00;26.80;93132.00;;;;10338346;28;49298;-67
2021/10/03 01:59:05;;;;;;;1.48;1.10;;;22.50;49.00;26.80;93124.00;;;;10337672;28;53334;-66
2021/10/03 02:04:07;;;;;;;1.00;0.82;;;22.50;49.00;26.80;93116.00;;;;10354777;28;47088;-65
2021/10/03 02:09:10;;;;;;;1.20;0.93;;;22.50;49.00;26.80;93099.00;;;;10337592;28;47026;-66
2021/10/03 02:14:13;;;;;;;1.50;1.20;;;22.40;49.00;26.80;93102.00;;;;10354300;28;45610;-66
2021/10/03 02:19:14;;;;;;;1.17;0.90;;;22.50;49.00;26.80;93084.00;;;;10353498;28;45578;-66
2021/10/03 02:24:15;;;;;;;1.30;1.10;;;22.40;49.00;26.70;93093.00;;;;10355645;28;45577;-67
2021/10/03 02:29:16;;;;;;;1.17;0.95;;;22.50;49.00;26.80;93078.00;;;;10352933;28;65626;-67
2021/10/03 02:34:17;;;;;;;1.58;1.13;;;22.50;49.00;26.80;93086.00;;;;10353797;28;46626;-66
2021/10/03 02:39:18;;;;;;;1.13;1.00;;;22.50;49.00;26.80;93077.00;;;;10353129;28;54469;-66
2021/10/03 02:44:19;;;;;;;1.30;1.08;;;22.50;49.00;26.80;93085.00;;;;10354021;28;75368;-67
2021/10/03 02:49:20;;;;;;;1.33;1.20;;;22.40;49.00;26.80;93078.00;;;;10335666;28;74477;-65
2021/10/03 02:54:21;;;;;;;2.08;1.13;;;22.40;49.00;26.70;93069.00;;;;10352870;28;48454;-66
2021/10/03 02:59:23;;;;;;;1.25;1.10;;;22.40;49.00;26.70;93070.00;;;;10351366;28;46608;-68
2021/10/03 03:04:24;;;;;;;2.08;1.20;;;22.40;49.00;26.70;93076.00;;;;10353013;28;46517;-67
2021/10/03 03:09:25;;;;;;;1.50;1.20;;;22.40;48.90;26.70;93068.00;;;;10351637;28;70374;-66
2021/10/03 03:14:26;;;;;;;1.52;1.00;;;22.40;49.00;26.70;93057.00;;;;10336008;28;46928;-66
2021/10/03 03:19:26;;;;;;;1.33;1.00;;;22.40;49.00;26.70;93069.00;;;;10334765;28;74551;-66
2021/10/03 03:24:27;;;;;;;1.88;1.05;;;22.40;49.00;26.70;93065.00;;;;10352537;28;74599;-66
2021/10/03 03:29:28;;;;;;;1.45;1.05;;;22.40;49.00;26.70;93057.00;;;;10349588;28;73142;-66
2021/10/03 03:34:29;;;;;;;1.40;1.10;;;22.40;49.00;26.70;93059.00;;;;10335192;28;49876;-66
2021/10/03 03:39:30;;;;;;;1.27;1.00;;;22.40;49.00;26.70;93069.00;;;;10334448;28;48128;-65
2021/10/03 03:44:32;;;;;;;1.17;1.00;;;22.40;49.00;26.70;93037.00;;;;10351080;28;69418;-66
2021/10/03 03:49:32;;;;;;;1.10;0.80;;;22.40;49.00;26.70;93039.00;;;;10334770;28;47097;-66
2021/10/03 03:54:33;;;;;;;1.17;0.98;;;22.40;49.00;26.70;93049.00;;;;10334721;28;47483;-65
2021/10/03 03:59:34;;;;;;;1.70;1.10;;;22.40;49.00;26.70;93042.00;;;;10333229;28;75281;-65
2021/10/03 04:04:34;;;;;;;1.30;1.00;;;22.40;49.00;26.70;93047.00;;;;10333491;28;75339;-65
2021/10/03 04:09:35;;;;;;;1.17;0.90;;;22.40;49.00;26.70;93045.00;;;;10350374;28;45441;-65
2021/10/03 04:14:36;;;;;;;1.20;1.00;;;22.40;49.10;26.70;93034.00;;;;10349825;28;50690;-65
2021/10/03 04:19:37;;;;;;;1.30;0.90;;;22.50;49.00;26.80;93019.00;;;;10350189;28;46482;-66
2021/10/03 04:24:37;;;;;;;1.08;0.88;;;22.50;48.90;26.80;93027.00;;;;10332684;28;75698;-65
2021/10/03 04:29:38;;;;;;;1.30;0.98;;;22.60;48.90;26.90;93017.00;;;;10332222;28;73126;-65
2021/10/03 04:34:39;;;;;;;1.58;1.10;;;22.60;48.80;26.90;93025.00;;;;10349004;28;74311;-66
2021/10/03 04:39:40;;;;;;;1.27;1.08;;;22.70;48.90;26.90;93021.00;;;;10352052;28;46395;-65
2021/10/03 04:44:40;;;;;;;1.42;1.10;;;22.70;48.80;27.00;93034.00;;;;10356645;28;51917;-65
2021/10/03 04:49:41;;;;;;;1.38;1.00;;;22.80;48.80;27.00;93016.00;;;;10338913;28;74130;-65
2021/10/03 04:54:42;;;;;;;0.82;0.70;;;22.80;48.80;27.10;93027.00;;;;10357589;28;47196;-66
2021/10/03 04:59:42;;;;;;;1.08;0.70;;;22.80;48.70;27.10;93032.00;;;;10339976;28;47169;-67
2021/10/03 05:04:43;;;;;;;0.90;0.70;;;22.80;48.70;27.10;93019.00;;;;10357519;28;45575;-66
2021/10/03 05:09:44;;;;;;;0.98;0.90;;;22.80;48.70;27.20;93018.00;;;;10338680;28;75778;-66
2021/10/03 05:14:44;;;;;;;1.25;0.95;;;22.90;48.70;27.20;93008.00;;;;10355862;28;66116;-66
2021/10/03 05:19:46;;;;;;;0.90;0.77;;;22.90;48.70;27.20;93002.00;;;;10339248;28;47134;-66
2021/10/03 05:24:47;;;;;;;0.98;0.88;;;22.90;48.70;27.20;93018.00;;;;10355957;28;45529;-66
2021/10/03 05:29:47;;;;;;;1.10;0.90;;;22.90;48.60;27.20;93005.00;;;;10354407;28;75737;-66
2021/10/03 05:34:48;;;;;;;1.00;0.70;;;22.90;48.60;27.30;93006.00;;;;10356262;28;54355;-66
2021/10/03 05:39:49;;;;;;;0.75;0.70;;;22.90;48.60;27.30;93004.00;;;;10339203;28;55941;-67
2021/10/03 05:44:50;;;;;;;0.98;0.80;;;23.00;48.60;27.30;92991.00;;;;10355226;28;73088;-66
2021/10/03 05:49:51;;;;;;;1.40;0.95;;;23.00;48.60;27.30;93000.00;;;;10338609;28;47514;-69
2021/10/03 05:54:52;;;;;;;0.80;0.70;;;23.00;48.60;27.30;93012.00;;;;10354762;28;73050;-66
2021/10/03 05:59:52;;;;;;;0.90;0.80;;;23.00;48.60;27.30;93017.00;;;;10337639;28;59905;-66
2021/10/03 06:04:53;;;;;;;0.77;0.68;;;23.00;48.60;27.40;93022.00;;;;10354370;28;73902;-66
2021/10/03 06:09:54;;;;;;;0.90;0.70;;;23.00;48.50;27.40;93020.00;;;;10353328;28;73204;-66
2021/10/03 06:14:54;;;;;;;1.00;0.80;;;23.00;48.50;27.40;93033.00;;;;10353479;28;73738;-66
2021/10/03 06:19:55;;;;;;;0.77;0.77;;;23.00;48.50;27.40;93021.00;;;;10336325;28;74260;-66
2021/10/03 06:24:56;;;;;;;1.23;0.90;;;23.00;48.50;27.40;93021.00;;;;10354597;28;75545;-67
2021/10/03 06:29:59;;;;;;;1.00;0.90;;;23.10;48.50;27.40;93029.00;;;;10352906;28;52810;-65
2021/10/03 06:34:59;;;;;;;0.82;0.70;;;23.00;48.40;27.40;93012.00;;;;10364015;28;58078;-66
2021/10/03 06:40:01;;;;;;;0.68;0.63;;;23.10;48.50;27.40;93030.00;;;;10374989;28;75555;-66
2021/10/03 06:45:03;;;;;;;0.90;0.70;;;23.10;48.50;27.40;93037.00;;;;10390228;28;47359;-66
2021/10/03 06:50:06;;;;;;;0.80;0.60;;;23.10;48.40;27.40;93036.00;;;;10361376;28;46429;-66
2021/10/03 06:55:07;;;;;;;1.10;0.80;;;23.10;48.50;27.40;93049.00;;;;10393681;28;48627;-66
2021/10/03 07:00:09;;;;;;;0.70;0.70;;;23.10;49.10;27.40;93055.00;;;;10387066;28;46761;-66
2021/10/03 07:05:12;;;;;;;0.82;0.70;;;23.10;48.40;27.50;93068.00;;;;10383485;28;47270;-66
2021/10/03 07:10:12;;;;;;;1.25;0.90;;;23.10;48.40;27.50;93059.00;;;;10392179;28;48181;-66
2021/10/03 07:15:14;;;;;;;1.00;0.77;;;23.10;48.40;27.50;93056.00;;;;10383716;28;74536;-66
2021/10/03 07:20:15;;;;;;;0.85;0.80;;;23.10;48.40;27.50;93080.00;;;;10376775;28;47247;-65
2021/10/03 07:25:17;;;;;;;1.00;0.85;;;23.20;48.40;27.50;93070.00;;;;10375793;28;47446;-65
2021/10/03 07:30:19;;;;;;;0.70;0.70;;;23.20;48.40;27.50;93076.00;;;;10350839;28;75552;-66
2021/10/03 07:35:20;;;;;;;1.23;0.90;;;23.20;48.40;27.50;93086.00;;;;10352077;28;45465;-66
2021/10/03 07:40:20;;;;;;;1.17;0.80;;;23.20;48.40;27.50;93076.00;;;;10334247;28;57629;-67
2021/10/03 07:45:21;;;;;;;1.13;0.82;;;23.20;48.40;27.50;93081.00;;;;10351875;28;75753;-66
2021/10/03 07:50:22;;;;;;;0.73;0.73;;;23.20;48.40;27.50;93074.00;;;;10333335;28;75480;-67
2021/10/03 07:55:28;;;;;;;1.67;1.20;;;23.20;48.40;27.50;93067.00;;;;10350340;28;64622;-66
2021/10/03 08:00:34;;;;;;;2.35;1.80;;;23.10;49.00;27.50;93067.00;;;;10332313;28;47394;-67
2021/10/03 08:05:35;;;;;;;3.58;2.00;;;23.10;49.20;27.50;93056.00;;;;10344964;28;45545;-65
2021/10/03 08:10:36;;;;;;;4.55;2.50;;;23.20;49.50;27.60;93071.00;;;;10350342;28;50616;-64
2021/10/03 08:15:37;;;;;;;4.25;2.30;;;23.20;49.70;27.60;93064.00;;;;10325287;28;50220;-66
2021/10/03 08:20:38;;;;;;;5.38;2.70;;;23.30;49.90;27.60;93048.00;;;;10335414;28;46615;-66
2021/10/03 08:25:40;;;;;;;3.75;2.20;;;23.30;50.10;27.70;93048.00;;;;10347464;28;45418;-64
2021/10/03 08:30:40;;;;;;;4.65;2.15;;;23.30;50.00;27.70;93064.00;;;;10349025;28;45497;-64
2021/10/03 08:35:41;;;;;;;4.75;2.30;;;23.30;49.90;27.70;93066.00;;;;10349111;28;68113;-61
2021/10/03 08:40:42;;;;;;;4.20;2.65;;;23.40;50.10;27.70;93050.00;;;;10348721;28;47157;-62
2021/10/03 08:45:44;;;;;;;4.68;2.10;;;23.40;50.30;27.70;93057.00;;;;10349105;28;48137;-65
2021/10/03 08:50:46;;;;;;;4.55;2.47;;;23.40;50.30;27.80;93059.00;;;;10347640;28;46270;-63
2021/10/03 08:55:47;;;;;;;4.28;2.20;;;23.40;50.10;27.80;93039.00;;;;10348175;28;45643;-61
2021/10/03 09:00:50;;;;;;;4.43;2.50;;;23.40;50.00;27.80;93065.00;;;;10348478;28;56320;-61
2021/10/03 09:05:57;;;;;;;3.75;2.13;;;23.40;50.10;27.80;93077.00;;;;10332360;28;47625;-63
2021/10/03 09:11:08;;;;;;;5.43;2.53;;;23.40;50.10;27.80;93062.00;;;;10348397;28;45355;-61
2021/10/03 09:16:22;;;;;;;3.75;2.70;;;23.40;50.20;27.80;93056.00;;;;10349417;28;45508;-69
2021/10/03 09:21:29;;;;;;;4.50;2.50;;;23.40;50.10;27.80;93066.00;;;;10348573;28;48281;-67
2021/10/03 09:26:32;;;;;;;3.78;2.38;;;23.40;50.30;27.80;93062.00;;;;10350266;28;47158;-63
2021/10/03 09:31:34;;;;;;;4.80;2.50;;;23.40;50.20;27.80;93059.00;;;;10356357;28;53161;-68
2021/10/03 09:36:34;;;;;;;3.75;2.20;;;23.40;50.30;27.80;93056.00;;;;10354891;28;45352;-68
2021/10/03 09:41:41;;;;;;;4.43;2.47;;;23.40;50.20;27.80;93056.00;;;;10354207;28;75557;-68
2021/10/03 09:46:46;;;;;;;5.05;2.15;;;23.50;50.30;27.90;93078.00;;;;10338155;28;46971;-67
2021/10/03 09:51:49;;;;;;;4.55;2.40;;;23.50;50.40;27.80;93091.00;;;;10337762;28;47036;-65
2021/10/03 09:56:52;;;;;;;4.43;2.38;;;23.50;50.10;27.80;93096.00;;;;10353946;28;46419;-69
2021/10/03 10:01:53;;;;;;;5.18;2.38;;;23.50;50.30;27.80;93086.00;;;;10338076;28;47170;-64
2021/10/03 10:06:54;;;;;;;3.92;2.22;;;23.50;50.30;27.80;93060.00;;;;10337251;28;46950;-63
2021/10/03 10:12:08;;;;;;;5.32;2.38;;;23.50;50.40;27.90;93028.00;;;;10353694;28;45475;-64
2021/10/03 10:17:39;;;;;;;4.15;2.10;;;23.50;50.40;28.00;93047.00;;;;10336708;28;48645;-66
2021/10/03 10:22:41;;;;;;;4.60;2.22;;;23.50;50.50;27.80;93037.00;;;;10336978;28;47369;-68
2021/10/03 10:27:58;;;;;;;4.38;2.15;;;23.50;50.50;27.90;93041.00;;;;10353706;28;45330;-67
2021/10/03 10:33:01;;;;;;;4.65;2.35;;;23.50;50.60;27.90;93031.00;;;;10355794;28;45731;-68
2021/10/03 10:38:02;;;;;;;4.50;2.22;;;23.50;50.60;27.90;93050.00;;;;10353077;28;45303;-63
2021/10/03 10:43:02;;;;;;;5.38;2.35;;;23.50;50.60;27.90;93033.00;;;;10352977;28;47138;-61
2021/10/03 10:48:09;;;;;;;3.85;2.15;;;23.50;50.50;27.90;93041.00;;;;10353469;28;45398;-62
2021/10/03 10:53:45;;;;;;;;;;;23.40;50.40;28.30;93026.00;;;;10352979;28;46989;-62
2021/10/03 10:58:48;;;;;;;3.33;2.17;;;23.50;50.40;27.80;93039.00;;;;10269599;28;46991;-61
2021/10/03 11:03:52;;;;;;;2.83;2.05;;;23.40;50.40;27.80;93013.00;;;;10353024;28;45522;-62
2021/10/03 11:09:09;;;;;;;3.83;2.03;;;23.40;50.40;27.80;93020.00;;;;10350877;28;45616;-62
2021/10/03 11:14:22;;;;;;;3.43;2.03;;;23.40;50.40;27.80;93014.00;;;;10353066;28;46109;-63
2021/10/03 11:19:41;;;;;;;2.50;1.80;;;23.30;50.40;27.80;93022.00;;;;10351547;28;51241;-62
2021/10/03 11:24:52;;;;;;;2.67;1.77;;;23.30;50.50;27.80;93041.00;;;;10343914;28;45297;-63
2021/10/03 11:29:57;;;;;;;4.75;1.92;;;23.40;50.90;27.80;93031.00;;;;10351537;28;45595;-62
2021/10/03 11:35:01;;;;;;;2.55;1.67;;;23.40;51.20;27.80;93037.00;;;;10350838;28;55632;-64
2021/10/03 11:40:13;;;;;;;2.72;1.80;;;23.50;51.40;27.90;93013.00;;;;10349925;28;45451;-69
2021/10/03 11:45:20;;;;;;;3.95;1.98;;;23.50;51.40;27.90;93027.00;;;;10349603;28;45485;-64
2021/10/03 11:50:42;;;;;;;4.78;1.98;;;23.50;51.40;27.90;93024.00;;;;10309389;28;45607;-63
2021/10/03 11:55:45;;;;;;;3.22;1.92;;;23.50;51.60;27.90;93021.00;;;;10324541;28;45361;-67
2021/10/03 12:00:58;;;;;;;2.50;1.63;;;23.50;51.70;28.00;93013.00;;;;10344965;28;45448;-67
2021/10/03 12:06:16;;;;;;;3.28;1.83;;;23.60;51.80;28.00;93029.00;;;;10347716;28;47259;-62
2021/10/03 12:11:17;;;;;;;2.35;1.65;;;23.70;51.90;28.00;93019.00;;;;10349505;28;47081;-63
2021/10/03 12:16:19;;;;;;;3.05;1.52;;;23.60;51.80;28.00;93023.00;;;;10348352;28;46669;-61
2021/10/03 12:21:25;;;;;;;2.75;1.70;;;23.70;51.70;28.10;93033.00;;;;10349677;28;49827;-65
2021/10/03 12:26:26;;;;;;;;;;;23.70;51.70;28.60;93037.00;;;;10350668;28;45418;-65
2021/10/03 12:31:54;;;;;;;2.92;1.73;;;23.70;51.70;28.20;93062.00;;;;10349015;28;48319;-67
2021/10/03 12:36:56;;;;;;;2.97;1.80;;;23.70;51.70;28.10;93067.00;;;;10331614;28;47396;-68
2021/10/03 12:42:08;;;;;;;2.65;1.60;;;23.80;51.80;28.10;93063.00;;;;10331998;28;55330;-64
2021/10/03 12:47:10;;;;;;;3.75;1.60;;;23.70;51.70;28.10;93062.00;;;;10351288;28;46612;-70
2021/10/03 12:52:14;;;;;;;2.28;1.50;;;23.80;51.80;28.20;93054.00;;;;10331636;28;48328;-63
2021/10/03 12:57:15;;;;;;;3.60;1.70;;;23.80;51.80;28.10;93035.00;;;;10346457;28;46140;-63
2021/10/03 13:02:16;;;;;;;2.95;1.70;;;23.80;51.70;28.10;93027.00;;;;10354976;22;47538;-63
2021/10/03 13:07:17;;;;;;;3.15;1.75;;;23.80;51.60;28.20;93034.00;;;;10353458;28;62903;-64
2021/10/03 13:12:17;;;;;;;2.20;1.30;;;23.80;51.80;28.10;93048.00;;;;10353357;28;75441;-61
2021/10/03 13:17:18;;;;;;;3.05;1.73;;;23.80;51.70;28.10;93037.00;;;;10354293;28;75580;-62
2021/10/03 13:22:19;;;;;;;3.05;1.65;;;23.70;51.40;28.10;93035.00;;;;10351948;28;75605;-61
2021/10/03 13:27:19;;;;;;;4.35;1.75;;;23.70;51.30;28.10;93050.00;;;;10355360;28;45526;-62
2021/10/03 13:32:20;;;;;;;2.45;1.40;;;23.70;51.40;28.00;93040.00;;;;10369106;28;73646;-61
2021/10/03 13:37:21;;;;;;;3.45;1.40;;;23.70;51.40;28.00;93044.00;;;;10369444;28;61131;-62
2021/10/03 13:42:21;;;;;;;2.45;1.40;;;23.70;51.50;28.00;93053.00;;;;10365999;28;70193;-65
2021/10/03 13:47:23;;;;;;;3.60;1.60;;;23.70;51.60;28.00;93045.00;;;;10346805;28;47283;-64
2021/10/03 13:52:24;;;;;;;2.38;1.40;;;23.70;51.70;28.10;93057.00;;;;10353222;28;45229;-63
2021/10/03 13:57:25;;;;;;;3.42;1.48;;;23.70;51.90;28.10;93055.00;;;;10353998;28;45690;-64
2021/10/03 14:02:26;;;;;;;3.03;1.35;;;23.70;51.90;28.10;93056.00;;;;10349896;28;73555;-66
2021/10/03 14:07:26;;;;;;;2.83;1.42;;;23.80;51.90;28.20;93065.00;;;;10351727;28;48195;-65
2021/10/03 14:12:27;;;;;;;2.88;1.30;;;23.80;51.90;28.10;93070.00;;;;10351365;28;75645;-64
2021/10/03 14:17:28;;;;;;;2.55;1.50;;;23.80;52.00;28.20;93075.00;;;;10352569;28;46960;-63
2021/10/03 14:22:28;;;;;;;1.83;1.27;;;23.80;51.90;28.20;93079.00;;;;10352386;28;73652;-64
2021/10/03 14:27:29;;;;;;;1.80;1.20;;;23.80;52.60;28.20;93101.00;;;;10352946;28;75624;-62
2021/10/03 14:32:30;;;;;;;2.35;1.30;;;23.80;51.90;28.20;93098.00;;;;10351944;28;75742;-67
2021/10/03 14:37:30;;;;;;;2.13;1.40;;;23.80;51.90;28.20;93126.00;;;;10367017;28;59306;-64
2021/10/03 14:42:31;;;;;;;2.15;1.10;;;23.80;51.90;28.20;93127.00;;;;10367016;28;73818;-64
2021/10/03 14:47:32;;;;;;;3.50;1.33;;;23.80;52.00;28.20;93142.00;;;;10350582;28;75476;-66
2021/10/03 14:52:33;;;;;;;3.20;1.42;;;23.80;52.00;28.20;93145.00;;;;10351102;28;53428;-67
2021/10/03 14:57:35;;;;;;;1.80;1.27;;;23.80;51.90;28.20;93137.00;;;;10349710;28;46919;-65
2021/10/03 15:02:36;;;;;;;2.40;1.30;;;23.80;51.90;28.20;93142.00;;;;10347455;28;46512;-64
2021/10/03 15:07:41;;;;;;;1.80;1.33;;;23.80;52.20;28.20;93139.00;;;;10365115;28;46205;-66
2021/10/03 15:12:44;;;;;;;1.65;1.10;;;23.80;52.00;28.20;93164.00;;;;10347766;28;48320;-65
2021/10/03 15:17:45;;;;;;;1.55;1.17;;;23.90;52.00;28.20;93186.00;;;;10356568;28;45573;-65
2021/10/03 15:22:46;;;;;;;1.75;1.20;;;23.80;52.00;28.20;93190.00;;;;10350008;28;47068;-66
2021/10/03 15:27:50;;;;;;;1.83;1.10;;;23.80;51.90;28.20;93189.00;;;;10348326;28;71770;-66
2021/10/03 15:32:51;;;;;;;1.35;1.00;;;23.80;51.90;28.20;93186.00;;;;10349446;28;45657;-62
2021/10/03 15:37:52;;;;;;;1.73;1.10;;;23.80;52.00;28.20;93183.00;;;;10350394;28;46928;-61
2021/10/03 15:42:53;;;;;;;1.40;0.98;;;23.80;51.80;28.20;93197.00;;;;10350873;28;47037;-62
2021/10/03 15:47:53;;;;;;;2.83;1.10;;;23.80;51.70;28.20;93183.00;;;;10326602;28;75502;-61
2021/10/03 15:52:54;;;;;;;1.95;1.08;;;23.80;51.70;28.20;93200.00;;;;10323784;28;74633;-61
2021/10/03 15:57:55;;;;;;;1.83;1.15;;;23.80;51.60;28.20;93200.00;;;;10328463;28;45868;-63
2021/10/03 16:02:56;;;;;;;2.00;1.10;;;23.70;51.50;28.20;93224.00;;;;10323123;28;75391;-62
2021/10/03 16:07:57;;;;;;;1.50;0.90;;;23.70;51.40;28.10;93246.00;;;;10310917;28;45213;-61
2021/10/03 16:12:59;;;;;;;2.67;1.02;;;23.70;51.30;28.10;93253.00;;;;10344888;28;45399;-62
2021/10/03 16:18:00;;;;;;;1.05;0.80;;;23.70;51.30;28.10;93276.00;;;;10339033;28;45966;-62
2021/10/03 16:23:01;;;;;;;1.38;0.93;;;23.70;51.20;28.10;93280.00;;;;10346768;28;46842;-61
2021/10/03 16:28:01;;;;;;;2.05;1.00;;;23.70;51.20;28.10;93295.00;;;;10349588;28;53580;-62
2021/10/03 16:33:02;;;;;;;2.15;1.17;;;23.70;51.20;28.10;93307.00;;;;10347485;28;76160;-62
2021/10/03 16:38:03;;;;;;;2.55;1.17;;;23.70;51.10;28.10;93325.00;;;;10331816;28;75206;-62
2021/10/03 16:43:05;;;;;;;1.52;1.00;;;23.70;51.10;28.10;93341.00;;;;10332658;28;45576;-62
2021/10/03 16:48:06;;;;;;;2.05;1.10;;;23.70;51.10;28.10;93351.00;;;;10342195;28;46417;-63
2021/10/03 16:53:07;;;;;;;1.38;0.80;;;23.70;51.00;28.10;93364.00;;;;10355163;28;48441;-63
2021/10/03 16:58:08;;;;;;;1.20;0.90;;;23.70;50.90;28.10;93373.00;;;;10355472;28;47302;-61
2021/10/03 17:03:09;;;;;;;3.28;1.10;;;23.70;50.90;28.10;93385.00;;;;10357004;28;45367;-61
2021/10/03 17:08:09;;;;;;;1.70;1.08;;;23.70;50.90;28.10;93412.00;;;;10354196;28;75426;-63
2021/10/03 17:13:10;;;;;;;1.60;1.05;;;23.70;50.80;28.10;93438.00;;;;10354755;28;74300;-62
2021/10/03 17:18:11;;;;;;;3.10;1.25;;;23.70;50.90;28.10;93460.00;;;;10349633;28;45606;-62
2021/10/03 17:23:12;;;;;;;1.00;0.88;;;23.70;50.80;28.00;93463.00;;;;10355293;28;47174;-65
2021/10/03 17:28:15;;;;;;;1.23;0.93;;;23.70;50.90;28.10;93465.00;;;;10335120;28;48189;-63
2021/10/03 17:33:17;;;;;;;1.35;1.08;;;23.70;51.20;28.10;93477.00;;;;10354810;28;46027;-65
2021/10/03 17:38:18;;;;;;;1.52;1.05;;;23.70;51.40;28.10;93499.00;;;;10353825;28;47477;-65
2021/10/03 17:43:19;;;;;;;2.00;0.95;;;23.80;51.30;28.20;93509.00;;;;10352831;28;45506;-63
2021/10/03 17:48:19;;;;;;;2.13;0.95;;;23.80;51.40;28.20;93511.00;;;;10371192;28;74498;-66
2021/10/03 17:53:20;;;;;;;1.75;1.10;;;23.90;51.40;28.20;93516.00;;;;10360520;28;45433;-66
2021/10/03 17:58:21;;;;;;;1.65;1.00;;;23.90;51.50;28.20;93526.00;;;;10370386;28;45580;-66
2021/10/03 18:03:22;;;;;;;1.40;0.93;;;23.80;51.50;28.20;93545.00;;;;10349812;28;73961;-66
2021/10/03 18:08:22;;;;;;;1.48;1.00;;;23.90;51.60;28.20;93550.00;;;;10352268;28;74346;-65
2021/10/03 18:13:23;;;;;;;1.27;0.80;;;23.90;51.50;28.20;93559.00;;;;10353130;28;46268;-65
2021/10/03 18:18:25;;;;;;;1.10;0.77;;;23.90;51.40;28.20;93580.00;;;;10351618;28;45544;-65
2021/10/03 18:23:26;;;;;;;3.03;0.90;;;23.90;51.40;28.30;93592.00;;;;10367663;28;53352;-66
2021/10/03 18:28:27;;;;;;;1.10;0.73;;;23.90;51.40;28.20;93594.00;;;;10351852;28;71661;-66
2021/10/03 18:33:28;;;;;;;1.08;0.90;;;23.90;51.40;28.30;93610.00;;;;10352484;28;68883;-67
2021/10/03 18:38:30;;;;;;;1.75;0.90;;;23.90;51.50;28.30;93619.00;;;;10352424;28;47068;-67
2021/10/03 18:43:32;;;;;;;1.85;0.88;;;23.90;51.40;28.30;93623.00;;;;10336096;28;47378;-66
2021/10/03 18:48:33;;;;;;;2.67;0.70;;;24.00;51.40;28.30;93654.00;;;;10350257;28;75253;-62
2021/10/03 18:53:34;;;;;;;0.77;0.70;;;24.00;51.50;28.30;93658.00;;;;10353026;28;45352;-62
2021/10/03 18:58:34;;;;;;;1.10;0.60;;;23.90;51.20;28.30;93658.00;;;;10350662;28;68628;-61
2021/10/03 19:03:35;;;;;;;1.00;0.65;;;23.90;51.20;28.30;93666.00;;;;10350075;28;74631;-62
2021/10/03 19:08:36;;;;;;;1.15;0.60;;;23.90;51.10;28.30;93658.00;;;;10353283;28;46349;-61
2021/10/03 19:13:44;;;;;;;0.40;0.40;;;23.90;51.10;28.30;93669.00;;;;10359972;22;75498;-61
2021/10/03 19:18:45;;;;;;;2.15;0.60;;;23.90;51.00;28.30;93664.00;;;;10314651;28;46902;-65
2021/10/03 19:23:46;;;;;;;0.63;0.52;;;23.90;51.10;28.30;93690.00;;;;10364667;28;46706;-66
2021/10/03 19:28:48;;;;;;;0.45;0.40;;;23.90;51.10;28.30;93688.00;;;;10349643;28;47583;-65
2021/10/03 19:33:50;;;;;;;0.35;0.32;;;23.90;50.90;28.30;93694.00;;;;10348386;28;75688;-66
2021/10/03 19:38:51;;;;;;;0.60;0.40;;;24.00;51.00;28.40;93705.00;;;;10350028;28;47137;-63
2021/10/03 19:43:52;;;;;;;0.40;0.40;;;24.00;50.90;28.40;93719.00;;;;10330064;28;48029;-63
2021/10/03 19:48:54;;;;;;;0.43;0.43;;;24.00;50.90;28.40;93722.00;;;;10350597;28;74536;-63
2021/10/03 19:53:55;;;;;;;0.65;0.47;;;24.10;50.90;28.40;93720.00;;;;10345537;28;47234;-63
2021/10/03 19:58:56;;;;;;;0.50;0.40;;;24.00;50.70;28.40;93734.00;;;;10345754;28;45532;-62
2021/10/03 20:03:57;;;;;;;0.38;0.30;;;24.00;50.60;28.40;93759.00;;;;10335391;28;73674;-63
2021/10/03 20:08:57;;;;;;;0.50;0.40;;;23.90;50.60;28.40;93750.00;;;;10355736;28;52899;-63
2021/10/03 20:13:58;;;;;;;0.47;0.32;;;23.90;50.60;28.30;93778.00;;;;10391369;28;45610;-63
2021/10/03 20:18:59;;;;;;;0.60;0.30;;;23.90;50.60;28.30;93777.00;;;;10389486;28;66751;-63
2021/10/03 20:23:59;;;;;;;0.30;0.30;;;23.90;50.60;28.30;93782.00;;;;10387592;28;75746;-63
2021/10/03 20:29:00;;;;;;;0.40;0.30;;;23.80;50.50;28.30;93791.00;;;;10332586;28;45640;-61
2021/10/03 20:34:02;;;;;;;1.40;0.20;;;23.80;50.40;28.20;93798.00;;;;10329970;28;75025;-63
2021/10/03 20:39:03;;;;;;;0.22;0.22;;;23.80;50.40;28.20;93800.00;;;;10381353;28;45599;-63
2021/10/03 20:44:05;;;;;;;0.30;0.30;;;23.80;51.00;28.20;93797.00;;;;10359461;28;47172;-61
2021/10/03 20:49:07;;;;;;;0.40;0.20;;;23.80;50.30;28.10;93814.00;;;;10342949;28;50794;-63
2021/10/03 20:54:07;;;;;;;0.20;0.20;;;23.80;50.30;28.10;93810.00;;;;10335322;28;46302;-63
2021/10/03 20:59:08;;;;;;;0.30;0.20;;;23.80;50.30;28.10;93822.00;;;;10324203;28;75243;-62
2021/10/03 21:04:09;;;;;;;1.48;0.35;;;23.70;50.20;28.10;93799.00;;;;10347655;28;67570;-63
2021/10/03 21:09:09;;;;;;;0.30;0.30;;;23.70;50.20;28.00;93819.00;;;;10349034;28;45402;-63
2021/10/03 21:14:10;;;;;;;0.17;0.10;;;23.70;50.20;28.00;93820.00;;;;10348854;28;75685;-64
2021/10/03 21:19:11;;;;;;;0.20;0.20;;;23.70;50.20;28.00;93811.00;;;;10369537;28;75312;-63
2021/10/03 21:24:12;;;;;;;0.35;0.30;;;23.70;50.20;28.00;93810.00;;;;10395489;28;56721;-61
2021/10/03 21:29:15;;;;;;;0.38;0.28;;;23.60;50.10;28.00;93819.00;;;;10396235;28;46354;-62
2021/10/03 21:34:16;;;;;;;0.20;0.20;;;23.60;50.10;27.90;93821.00;;;;10395685;28;46912;-61
2021/10/03 21:39:18;;;;;;;0.20;0.10;;;23.60;50.10;27.90;93816.00;;;;10396690;28;46349;-62
2021/10/03 21:44:19;;;;;;;0.20;0.17;;;23.50;50.10;27.90;93817.00;;;;10395790;28;75533;-62
2021/10/03 21:49:19;;;;;;;0.32;0.15;;;23.50;50.10;27.90;93820.00;;;;10394852;28;47046;-62
2021/10/03 21:54:20;;;;;;;0.10;0.10;;;23.50;50.10;27.90;93838.00;;;;10394055;28;74107;-62
2021/10/03 21:59:21;;;;;;;0.30;0.20;;;23.50;50.10;27.80;93826.00;;;;10376803;28;73925;-62
2021/10/03 22:04:21;;;;;;;0.40;0.10;;;23.50;50.10;27.80;93810.00;;;;10395206;28;75396;-63
2021/10/03 22:09:22;;;;;;;0.25;0.20;;;23.50;50.10;27.80;93819.00;;;;10392764;28;74874;-61